sensor_id;sensor_type;location;lat;lon;timestamp;pressure;altitude;pressure_sealevel;temperature;humidity
6599;BME280;3335;43.198;27.918;2022-11-15T00:00:45;149755.75;;;9.98;100.00
6599;BME280;3335;43.198;27.918;2022-11-15T00:03:13;149743.31;;;9.93;100.00
6599;BME280;3335;43.198;27.918;2022-11-15T00:05:40;149710.81;;;9.80;100.00
6599;BME280;3335;43.198;27.918;2022-11-15T00:08:07;149720.81;;;9.84;100.00
6599;BME280;3335;43.198;27.918;2022-11-15T00:10:35;149724.56;;;9.85;100.00
6599;BME280;3335;43.198;27.918;2022-11-15T00:13:05;149720.81;;;9.84;100.00
6599;BME280;3335;43.198;27.918;2022-11-15T00:15:34;149718.34;;;9.83;100.00
6599;BME280;3335;43.198;27.918;2022-11-15T00:18:03;149752.03;;;9.96;100.00
6599;BME280;3335;43.198;27.918;2022-11-15T00:20:31;149705.84;;;9.78;100.00
6599;BME280;3335;43.198;27.918;2022-11-15T00:22:58;149727.06;;;9.86;100.00
6599;BME280;3335;43.198;27.918;2022-11-15T00:25:25;149743.31;;;9.93;100.00
6599;BME280;3335;43.198;27.918;2022-11-15T00:27:55;149725.81;;;9.86;100.00
6599;BME280;3335;43.198;27.918;2022-11-15T00:30:22;149753.31;;;9.97;100.00
6599;BME280;3335;43.198;27.918;2022-11-15T00:32:49;149705.84;;;9.78;100.00
6599;BME280;3335;43.198;27.918;2022-11-15T00:35:18;149725.81;;;9.86;100.00
6599;BME280;3335;43.198;27.918;2022-11-15T00:37:45;149749.53;;;9.95;100.00
6599;BME280;3335;43.198;27.918;2022-11-15T00:40:13;149785.75;;;10.10;100.00
6599;BME280;3335;43.198;27.918;2022-11-15T00:42:41;149752.03;;;9.96;100.00
6599;BME280;3335;43.198;27.918;2022-11-15T00:45:09;149725.81;;;9.86;100.00
6599;BME280;3335;43.198;27.918;2022-11-15T00:47:36;149750.78;;;9.96;100.00
6599;BME280;3335;43.198;27.918;2022-11-15T00:50:03;149688.34;;;9.71;100.00
6599;BME280;3335;43.198;27.918;2022-11-15T00:52:32;149710.81;;;9.80;100.00
6599;BME280;3335;43.198;27.918;2022-11-15T00:54:59;149729.56;;;9.87;100.00
6599;BME280;3335;43.198;27.918;2022-11-15T00:57:25;149747.03;;;9.94;100.00
6599;BME280;3335;43.198;27.918;2022-11-15T00:59:52;149724.56;;;9.85;100.00
6599;BME280;3335;43.198;27.918;2022-11-15T01:02:19;149700.84;;;9.76;100.00
6599;BME280;3335;43.198;27.918;2022-11-15T01:04:46;149697.06;;;9.74;100.00
6599;BME280;3335;43.198;27.918;2022-11-15T01:07:13;149700.84;;;9.76;100.00
6599;BME280;3335;43.198;27.918;2022-11-15T01:09:41;149700.84;;;9.76;100.00
6599;BME280;3335;43.198;27.918;2022-11-15T01:12:08;149680.88;;;9.68;100.00
6599;BME280;3335;43.198;27.918;2022-11-15T01:14:35;149700.84;;;9.76;100.00
6599;BME280;3335;43.198;27.918;2022-11-15T01:17:02;149733.28;;;9.89;100.00
6599;BME280;3335;43.198;27.918;2022-11-15T01:19:29;149693.38;;;9.73;100.00
6599;BME280;3335;43.198;27.918;2022-11-15T01:21:55;149679.63;;;9.67;100.00
6599;BME280;3335;43.198;27.918;2022-11-15T01:24:22;149678.38;;;9.66;100.00
6599;BME280;3335;43.198;27.918;2022-11-15T01:26:51;149660.91;;;9.59;100.00
6599;BME280;3335;43.198;27.918;2022-11-15T01:29:18;149650.91;;;9.55;100.00
6599;BME280;3335;43.198;27.918;2022-11-15T01:31:44;149659.66;;;9.59;100.00
6599;BME280;3335;43.198;27.918;2022-11-15T01:34:11;149662.13;;;9.60;100.00
6599;BME280;3335;43.198;27.918;2022-11-15T01:36:38;149643.44;;;9.52;100.00
6599;BME280;3335;43.198;27.918;2022-11-15T01:39:05;149644.66;;;9.53;100.00
6599;BME280;3335;43.198;27.918;2022-11-15T01:41:32;149667.16;;;9.62;100.00
6599;BME280;3335;43.198;27.918;2022-11-15T01:47:03;149670.91;;;9.63;100.00
6599;BME280;3335;43.198;27.918;2022-11-15T01:49:33;149652.16;;;9.56;100.00
6599;BME280;3335;43.198;27.918;2022-11-15T01:52:04;149645.94;;;9.53;100.00
6599;BME280;3335;43.198;27.918;2022-11-15T01:54:32;149649.69;;;9.55;100.00
6599;BME280;3335;43.198;27.918;2022-11-15T01:57:01;149634.69;;;9.49;100.00
6599;BME280;3335;43.198;27.918;2022-11-15T01:59:30;149669.66;;;9.63;100.00
6599;BME280;3335;43.198;27.918;2022-11-15T02:01:57;149677.13;;;9.66;100.00
6599;BME280;3335;43.198;27.918;2022-11-15T02:04:27;149645.94;;;9.53;100.00
6599;BME280;3335;43.198;27.918;2022-11-15T02:06:54;149660.91;;;9.59;100.00
6599;BME280;3335;43.198;27.918;2022-11-15T02:09:22;149710.81;;;9.80;100.00
6599;BME280;3335;43.198;27.918;2022-11-15T02:11:50;149660.91;;;9.59;100.00
6599;BME280;3335;43.198;27.918;2022-11-15T02:14:18;149645.94;;;9.53;100.00
6599;BME280;3335;43.198;27.918;2022-11-15T02:16:53;149730.84;;;9.88;100.00
6599;BME280;3335;43.198;27.918;2022-11-15T02:19:40;149720.81;;;9.84;100.00
6599;BME280;3335;43.198;27.918;2022-11-15T02:22:27;149601.00;;;9.35;100.00
6599;BME280;3335;43.198;27.918;2022-11-15T02:25:10;149670.91;;;9.63;100.00
6599;BME280;3335;43.198;27.918;2022-11-15T02:27:59;149684.63;;;9.69;100.00
6599;BME280;3335;43.198;27.918;2022-11-15T02:30:40;149655.91;;;9.57;100.00
6599;BME280;3335;43.198;27.918;2022-11-15T02:33:17;149638.41;;;9.50;100.00
6599;BME280;3335;43.198;27.918;2022-11-15T02:35:56;149639.66;;;9.51;100.00
6599;BME280;3335;43.198;27.918;2022-11-15T02:38:31;149642.16;;;9.52;100.00
6599;BME280;3335;43.198;27.918;2022-11-15T02:41:02;149615.94;;;9.41;100.00
6599;BME280;3335;43.198;27.918;2022-11-15T02:43:36;149653.41;;;9.56;100.00
6599;BME280;3335;43.198;27.918;2022-11-15T02:46:24;149655.91;;;9.57;100.00
6599;BME280;3335;43.198;27.918;2022-11-15T02:49:14;149640.91;;;9.51;100.00
6599;BME280;3335;43.198;27.918;2022-11-15T02:51:45;149619.72;;;9.43;100.00
6599;BME280;3335;43.198;27.918;2022-11-15T02:54:15;149649.69;;;9.55;100.00
6599;BME280;3335;43.198;27.918;2022-11-15T02:56:45;149680.88;;;9.68;100.00
6599;BME280;3335;43.198;27.918;2022-11-15T02:59:27;149658.41;;;9.58;100.00
6599;BME280;3335;43.198;27.918;2022-11-15T03:02:12;149678.38;;;9.66;100.00
6599;BME280;3335;43.198;27.918;2022-11-15T03:04:52;149705.84;;;9.78;100.00
6599;BME280;3335;43.198;27.918;2022-11-15T03:07:25;149670.91;;;9.63;100.00
6599;BME280;3335;43.198;27.918;2022-11-15T03:10:02;149678.38;;;9.66;100.00
6599;BME280;3335;43.198;27.918;2022-11-15T03:12:37;149680.88;;;9.68;100.00
6599;BME280;3335;43.198;27.918;2022-11-15T03:15:11;149673.41;;;9.64;100.00
6599;BME280;3335;43.198;27.918;2022-11-15T03:17:48;149658.41;;;9.58;100.00
6599;BME280;3335;43.198;27.918;2022-11-15T03:20:19;149658.41;;;9.58;100.00
6599;BME280;3335;43.198;27.918;2022-11-15T03:22:47;149733.28;;;9.89;100.00
6599;BME280;3335;43.198;27.918;2022-11-15T03:25:18;149642.16;;;9.52;100.00
6599;BME280;3335;43.198;27.918;2022-11-15T03:27:50;149699.59;;;9.75;100.00
6599;BME280;3335;43.198;27.918;2022-11-15T03:30:19;149758.28;;;9.99;100.00
6599;BME280;3335;43.198;27.918;2022-11-15T03:32:51;149758.28;;;9.99;100.00
6599;BME280;3335;43.198;27.918;2022-11-15T03:35:23;149760.78;;;10.00;100.00
6599;BME280;3335;43.198;27.918;2022-11-15T03:37:54;149708.38;;;9.79;100.00
6599;BME280;3335;43.198;27.918;2022-11-15T03:40:29;149668.38;;;9.62;100.00
6599;BME280;3335;43.198;27.918;2022-11-15T03:43:00;149715.84;;;9.82;100.00
6599;BME280;3335;43.198;27.918;2022-11-15T03:45:33;149708.38;;;9.79;100.00
6599;BME280;3335;43.198;27.918;2022-11-15T03:48:08;149699.59;;;9.75;100.00
6599;BME280;3335;43.198;27.918;2022-11-15T03:50:37;149710.81;;;9.80;100.00
6599;BME280;3335;43.198;27.918;2022-11-15T03:53:05;149713.34;;;9.81;100.00
6599;BME280;3335;43.198;27.918;2022-11-15T03:55:32;149738.31;;;9.91;100.00
6599;BME280;3335;43.198;27.918;2022-11-15T03:58:00;149717.09;;;9.82;100.00
6599;BME280;3335;43.198;27.918;2022-11-15T04:00:28;149680.88;;;9.68;100.00
6599;BME280;3335;43.198;27.918;2022-11-15T04:02:55;149710.81;;;9.80;100.00
6599;BME280;3335;43.198;27.918;2022-11-15T04:05:23;149713.34;;;9.81;100.00
6599;BME280;3335;43.198;27.918;2022-11-15T04:07:50;149727.06;;;9.86;100.00
6599;BME280;3335;43.198;27.918;2022-11-15T04:10:17;149710.81;;;9.80;100.00
6599;BME280;3335;43.198;27.918;2022-11-15T04:12:45;149723.31;;;9.85;100.00
6599;BME280;3335;43.198;27.918;2022-11-15T04:15:15;149700.84;;;9.76;100.00
6599;BME280;3335;43.198;27.918;2022-11-15T04:17:43;149685.84;;;9.70;100.00
6599;BME280;3335;43.198;27.918;2022-11-15T04:20:14;149699.59;;;9.75;100.00
6599;BME280;3335;43.198;27.918;2022-11-15T04:23:02;149700.84;;;9.76;100.00
6599;BME280;3335;43.198;27.918;2022-11-15T04:25:49;149675.88;;;9.65;100.00
6599;BME280;3335;43.198;27.918;2022-11-15T04:28:17;149692.13;;;9.72;100.00
6599;BME280;3335;43.198;27.918;2022-11-15T04:30:45;149700.84;;;9.76;100.00
6599;BME280;3335;43.198;27.918;2022-11-15T04:33:12;149680.88;;;9.68;100.00
6599;BME280;3335;43.198;27.918;2022-11-15T04:35:38;149655.91;;;9.57;100.00
6599;BME280;3335;43.198;27.918;2022-11-15T04:38:08;149669.66;;;9.63;100.00
6599;BME280;3335;43.198;27.918;2022-11-15T04:40:35;149458.75;;;8.77;100.00
6599;BME280;3335;43.198;27.918;2022-11-15T04:43:03;149650.91;;;9.55;100.00
6599;BME280;3335;43.198;27.918;2022-11-15T04:45:30;149650.91;;;9.55;100.00
6599;BME280;3335;43.198;27.918;2022-11-15T04:47:57;149670.91;;;9.63;100.00
6599;BME280;3335;43.198;27.918;2022-11-15T04:50:24;149650.91;;;9.55;100.00
6599;BME280;3335;43.198;27.918;2022-11-15T04:52:52;149645.94;;;9.53;100.00
6599;BME280;3335;43.198;27.918;2022-11-15T04:55:21;149698.34;;;9.75;100.00
6599;BME280;3335;43.198;27.918;2022-11-15T04:57:48;149698.34;;;9.75;100.00
6599;BME280;3335;43.198;27.918;2022-11-15T05:00:23;149658.41;;;9.58;100.00
6599;BME280;3335;43.198;27.918;2022-11-15T05:02:50;149667.16;;;9.62;100.00
6599;BME280;3335;43.198;27.918;2022-11-15T05:05:35;149699.59;;;9.75;100.00
6599;BME280;3335;43.198;27.918;2022-11-15T05:08:02;149648.44;;;9.54;100.00
6599;BME280;3335;43.198;27.918;2022-11-15T05:10:30;149735.78;;;9.90;100.00
6599;BME280;3335;43.198;27.918;2022-11-15T05:12:57;149709.56;;;9.79;100.00
6599;BME280;3335;43.198;27.918;2022-11-15T05:15:24;149693.38;;;9.73;100.00
6599;BME280;3335;43.198;27.918;2022-11-15T05:17:51;149668.38;;;9.62;100.00
6599;BME280;3335;43.198;27.918;2022-11-15T05:20:17;149675.88;;;9.65;100.00
6599;BME280;3335;43.198;27.918;2022-11-15T05:22:44;149677.13;;;9.66;100.00
6599;BME280;3335;43.198;27.918;2022-11-15T05:25:11;149648.44;;;9.54;100.00
6599;BME280;3335;43.198;27.918;2022-11-15T05:27:39;149648.44;;;9.54;100.00
6599;BME280;3335;43.198;27.918;2022-11-15T05:30:07;149637.19;;;9.50;100.00
6599;BME280;3335;43.198;27.918;2022-11-15T05:32:34;149632.19;;;9.48;100.00
6599;BME280;3335;43.198;27.918;2022-11-15T05:35:02;149607.22;;;9.38;100.00
6599;BME280;3335;43.198;27.918;2022-11-15T05:37:32;149670.91;;;9.63;100.00
6599;BME280;3335;43.198;27.918;2022-11-15T05:39:59;149673.41;;;9.64;100.00
6599;BME280;3335;43.198;27.918;2022-11-15T05:42:27;149658.41;;;9.58;100.00
6599;BME280;3335;43.198;27.918;2022-11-15T05:44:57;149668.38;;;9.62;100.00
6599;BME280;3335;43.198;27.918;2022-11-15T05:47:27;149688.34;;;9.71;100.00
6599;BME280;3335;43.198;27.918;2022-11-15T05:49:56;149675.88;;;9.65;100.00
6599;BME280;3335;43.198;27.918;2022-11-15T05:52:25;149643.44;;;9.52;100.00
6599;BME280;3335;43.198;27.918;2022-11-15T05:54:56;149695.88;;;9.74;100.00
6599;BME280;3335;43.198;27.918;2022-11-15T05:57:24;149689.59;;;9.71;100.00
6599;BME280;3335;43.198;27.918;2022-11-15T05:59:51;149675.88;;;9.65;100.00
6599;BME280;3335;43.198;27.918;2022-11-15T06:02:20;149670.91;;;9.63;100.00
6599;BME280;3335;43.198;27.918;2022-11-15T06:04:46;149668.38;;;9.62;100.00
6599;BME280;3335;43.198;27.918;2022-11-15T06:07:13;149658.41;;;9.58;100.00
6599;BME280;3335;43.198;27.918;2022-11-15T06:09:40;149658.41;;;9.58;100.00
6599;BME280;3335;43.198;27.918;2022-11-15T06:12:07;149655.91;;;9.57;100.00
6599;BME280;3335;43.198;27.918;2022-11-15T06:14:34;149664.63;;;9.61;100.00
6599;BME280;3335;43.198;27.918;2022-11-15T06:17:01;149668.38;;;9.62;100.00
6599;BME280;3335;43.198;27.918;2022-11-15T06:19:29;149675.88;;;9.65;100.00
6599;BME280;3335;43.198;27.918;2022-11-15T06:21:58;149680.88;;;9.68;100.00
6599;BME280;3335;43.198;27.918;2022-11-15T06:24:25;149673.41;;;9.64;100.00
6599;BME280;3335;43.198;27.918;2022-11-15T06:26:52;149682.13;;;9.68;100.00
6599;BME280;3335;43.198;27.918;2022-11-15T06:29:19;149690.88;;;9.72;100.00
6599;BME280;3335;43.198;27.918;2022-11-15T06:31:45;149685.84;;;9.70;100.00
6599;BME280;3335;43.198;27.918;2022-11-15T06:34:12;149700.84;;;9.76;100.00
6599;BME280;3335;43.198;27.918;2022-11-15T06:36:41;149543.59;;;9.12;100.00
6599;BME280;3335;43.198;27.918;2022-11-15T06:39:07;149735.78;;;9.90;100.00
6599;BME280;3335;43.198;27.918;2022-11-15T06:41:34;149725.81;;;9.86;100.00
6599;BME280;3335;43.198;27.918;2022-11-15T06:44:01;149743.31;;;9.93;100.00
6599;BME280;3335;43.198;27.918;2022-11-15T06:46:28;149758.28;;;9.99;100.00
6599;BME280;3335;43.198;27.918;2022-11-15T06:48:55;149739.56;;;9.91;100.00
6599;BME280;3335;43.198;27.918;2022-11-15T06:51:22;149757.00;;;9.98;100.00
6599;BME280;3335;43.198;27.918;2022-11-15T06:53:51;149783.25;;;10.09;100.00
6599;BME280;3335;43.198;27.918;2022-11-15T06:56:17;149768.25;;;10.03;100.00
6599;BME280;3335;43.198;27.918;2022-11-15T06:58:44;149772.00;;;10.04;100.00
6599;BME280;3335;43.198;27.918;2022-11-15T07:01:12;149775.78;;;10.06;100.00
6599;BME280;3335;43.198;27.918;2022-11-15T07:03:40;149714.56;;;9.81;100.00
6599;BME280;3335;43.198;27.918;2022-11-15T07:06:08;149724.56;;;9.85;100.00
6599;BME280;3335;43.198;27.918;2022-11-15T07:08:35;149700.84;;;9.76;100.00
6599;BME280;3335;43.198;27.918;2022-11-15T07:11:06;149768.25;;;10.03;100.00
6599;BME280;3335;43.198;27.918;2022-11-15T07:13:34;149763.28;;;10.01;100.00
6599;BME280;3335;43.198;27.918;2022-11-15T07:16:02;149763.28;;;10.01;100.00
6599;BME280;3335;43.198;27.918;2022-11-15T07:18:30;149763.28;;;10.01;100.00
6599;BME280;3335;43.198;27.918;2022-11-15T07:21:00;149757.00;;;9.98;100.00
6599;BME280;3335;43.198;27.918;2022-11-15T07:23:27;149768.25;;;10.03;100.00
6599;BME280;3335;43.198;27.918;2022-11-15T07:25:56;149785.75;;;10.10;100.00
6599;BME280;3335;43.198;27.918;2022-11-15T07:28:25;149772.00;;;10.04;100.00
6599;BME280;3335;43.198;27.918;2022-11-15T07:30:52;149755.75;;;9.98;100.00
6599;BME280;3335;43.198;27.918;2022-11-15T07:33:20;149740.81;;;9.92;100.00
6599;BME280;3335;43.198;27.918;2022-11-15T07:35:47;149770.75;;;10.04;100.00
6599;BME280;3335;43.198;27.918;2022-11-15T07:38:15;149778.28;;;10.07;100.00
6599;BME280;3335;43.198;27.918;2022-11-15T07:40:45;149749.53;;;9.95;100.00
6599;BME280;3335;43.198;27.918;2022-11-15T07:43:13;149754.56;;;9.97;100.00
6599;BME280;3335;43.198;27.918;2022-11-15T07:45:43;149800.81;;;10.16;100.00
6599;BME280;3335;43.198;27.918;2022-11-15T07:48:11;149798.25;;;10.15;100.00
6599;BME280;3335;43.198;27.918;2022-11-15T07:50:40;149812.03;;;10.21;100.00
6599;BME280;3335;43.198;27.918;2022-11-15T07:53:08;149791.97;;;10.13;100.00
6599;BME280;3335;43.198;27.918;2022-11-15T07:55:36;149823.28;;;10.25;100.00
6599;BME280;3335;43.198;27.918;2022-11-15T07:58:04;149773.25;;;10.05;100.00
6599;BME280;3335;43.198;27.918;2022-11-15T08:00:32;149795.75;;;10.14;100.00
6599;BME280;3335;43.198;27.918;2022-11-15T08:03:05;149793.22;;;10.13;100.00
6599;BME280;3335;43.198;27.918;2022-11-15T08:05:32;149800.81;;;10.16;100.00
6599;BME280;3335;43.198;27.918;2022-11-15T08:07:59;149813.28;;;10.21;100.00
6599;BME280;3335;43.198;27.918;2022-11-15T08:10:27;149667.16;;;9.62;100.00
6599;BME280;3335;43.198;27.918;2022-11-15T08:12:58;149793.22;;;10.13;100.00
6599;BME280;3335;43.198;27.918;2022-11-15T08:15:25;149850.72;;;10.36;100.00
6599;BME280;3335;43.198;27.918;2022-11-15T08:17:56;149838.22;;;10.31;100.00
6599;BME280;3335;43.198;27.918;2022-11-15T08:20:25;149838.22;;;10.31;100.00
6599;BME280;3335;43.198;27.918;2022-11-15T08:22:55;149835.78;;;10.30;100.00
6599;BME280;3335;43.198;27.918;2022-11-15T08:25:22;149832.00;;;10.29;100.00
6599;BME280;3335;43.198;27.918;2022-11-15T08:27:52;149851.97;;;10.37;100.00
6599;BME280;3335;43.198;27.918;2022-11-15T08:30:19;149860.75;;;10.40;100.00
6599;BME280;3335;43.198;27.918;2022-11-15T08:32:46;149815.75;;;10.22;100.00
6599;BME280;3335;43.198;27.918;2022-11-15T08:35:13;149849.50;;;10.36;100.00
6599;BME280;3335;43.198;27.918;2022-11-15T08:37:42;149845.75;;;10.34;100.00
6599;BME280;3335;43.198;27.918;2022-11-15T08:40:09;149844.50;;;10.34;100.00
6599;BME280;3335;43.198;27.918;2022-11-15T08:42:37;149860.75;;;10.40;100.00
6599;BME280;3335;43.198;27.918;2022-11-15T08:45:04;149865.72;;;10.42;100.00
6599;BME280;3335;43.198;27.918;2022-11-15T08:47:32;149793.22;;;10.13;100.00
6599;BME280;3335;43.198;27.918;2022-11-15T08:49:59;149885.69;;;10.50;100.00
6599;BME280;3335;43.198;27.918;2022-11-15T08:52:26;149880.72;;;10.48;100.00
6599;BME280;3335;43.198;27.918;2022-11-15T08:54:54;149865.72;;;10.42;100.00
6599;BME280;3335;43.198;27.918;2022-11-15T08:57:21;149896.94;;;10.55;100.00
6599;BME280;3335;43.198;27.918;2022-11-15T08:59:48;149748.28;;;9.95;100.00
6599;BME280;3335;43.198;27.918;2022-11-15T09:02:16;149886.94;;;10.51;100.00
6599;BME280;3335;43.198;27.918;2022-11-15T09:04:43;149755.75;;;9.98;100.00
6599;BME280;3335;43.198;27.918;2022-11-15T09:07:11;149924.44;;;10.66;100.00
6599;BME280;3335;43.198;27.918;2022-11-15T09:09:38;149920.66;;;10.65;100.00
6599;BME280;3335;43.198;27.918;2022-11-15T09:12:07;149900.69;;;10.57;100.00
6599;BME280;3335;43.198;27.918;2022-11-15T09:14:34;149933.16;;;10.70;100.00
6599;BME280;3335;43.198;27.918;2022-11-15T09:17:02;149931.91;;;10.69;100.00
6599;BME280;3335;43.198;27.918;2022-11-15T09:19:29;149945.66;;;10.75;100.00
6599;BME280;3335;43.198;27.918;2022-11-15T09:21:56;149940.69;;;10.73;100.00
6599;BME280;3335;43.198;27.918;2022-11-15T09:24:23;149935.69;;;10.71;100.00
6599;BME280;3335;43.198;27.918;2022-11-15T09:26:50;149945.66;;;10.75;100.00
6599;BME280;3335;43.198;27.918;2022-11-15T09:29:19;149989.44;;;10.92;100.00
6599;BME280;3335;43.198;27.918;2022-11-15T09:31:45;149996.91;;;10.95;100.00
6599;BME280;3335;43.198;27.918;2022-11-15T09:34:12;150010.66;;;11.01;100.00
6599;BME280;3335;43.198;27.918;2022-11-15T09:36:39;150018.16;;;11.04;100.00
6599;BME280;3335;43.198;27.918;2022-11-15T09:39:06;150030.66;;;11.09;100.00
6599;BME280;3335;43.198;27.918;2022-11-15T09:41:54;150043.16;;;11.14;100.00
6599;BME280;3335;43.198;27.918;2022-11-15T09:44:45;150055.66;;;11.19;100.00
6599;BME280;3335;43.198;27.918;2022-11-15T09:47:29;150026.88;;;11.08;100.00
6599;BME280;3335;43.198;27.918;2022-11-15T09:50:01;150020.66;;;11.05;100.00
6599;BME280;3335;43.198;27.918;2022-11-15T09:52:28;150070.66;;;11.25;100.00
6599;BME280;3335;43.198;27.918;2022-11-15T09:54:55;150073.13;;;11.26;100.00
6599;BME280;3335;43.198;27.918;2022-11-15T09:57:31;150083.16;;;11.30;100.00
6599;BME280;3335;43.198;27.918;2022-11-15T10:00:06;150111.88;;;11.42;100.00
6599;BME280;3335;43.198;27.918;2022-11-15T10:02:46;150130.66;;;11.50;100.00
6599;BME280;3335;43.198;27.918;2022-11-15T10:05:20;150135.63;;;11.52;100.00
6599;BME280;3335;43.198;27.918;2022-11-15T10:07:54;150160.63;;;11.62;100.00
6599;BME280;3335;43.198;27.918;2022-11-15T10:10:28;150158.13;;;11.61;100.00
6599;BME280;3335;43.198;27.918;2022-11-15T10:12:57;150125.63;;;11.48;100.00
6599;BME280;3335;43.198;27.918;2022-11-15T10:15:25;150101.88;;;11.38;100.00
6599;BME280;3335;43.198;27.918;2022-11-15T10:18:07;150118.16;;;11.45;100.00
6599;BME280;3335;43.198;27.918;2022-11-15T10:20:44;150068.16;;;11.24;100.00
6599;BME280;3335;43.198;27.918;2022-11-15T10:23:14;150126.88;;;11.48;100.00
6599;BME280;3335;43.198;27.918;2022-11-15T10:25:43;150133.13;;;11.51;100.00
6599;BME280;3335;43.198;27.918;2022-11-15T10:28:21;150129.41;;;11.49;100.00
6599;BME280;3335;43.198;27.918;2022-11-15T10:30:51;150075.63;;;11.27;100.00
6599;BME280;3335;43.198;27.918;2022-11-15T10:33:26;150115.66;;;11.44;100.00
6599;BME280;3335;43.198;27.918;2022-11-15T10:36:15;150183.13;;;11.71;100.00
6599;BME280;3335;43.198;27.918;2022-11-15T10:38:54;150200.72;;;11.78;100.00
6599;BME280;3335;43.198;27.918;2022-11-15T10:41:29;150183.13;;;11.71;100.00
6599;BME280;3335;43.198;27.918;2022-11-15T10:44:21;150221.97;;;11.87;100.00
6599;BME280;3335;43.198;27.918;2022-11-15T10:47:06;150235.72;;;11.92;100.00
6599;BME280;3335;43.198;27.918;2022-11-15T10:49:34;150251.94;;;11.99;100.00
6599;BME280;3335;43.198;27.918;2022-11-15T10:52:13;150248.22;;;11.97;100.00
6599;BME280;3335;43.198;27.918;2022-11-15T10:54:47;150248.22;;;11.97;100.00
6599;BME280;3335;43.198;27.918;2022-11-15T10:57:16;150265.72;;;12.04;100.00
6599;BME280;3335;43.198;27.918;2022-11-15T10:59:48;150260.69;;;12.02;100.00
6599;BME280;3335;43.198;27.918;2022-11-15T11:02:31;150250.69;;;11.98;100.00
6599;BME280;3335;43.198;27.918;2022-11-15T11:04:59;150221.97;;;11.87;100.00
6599;BME280;3335;43.198;27.918;2022-11-15T11:07:28;150225.69;;;11.88;100.00
6599;BME280;3335;43.198;27.918;2022-11-15T11:10:01;150249.44;;;11.98;100.00
6599;BME280;3335;43.198;27.918;2022-11-15T11:12:30;150275.72;;;12.08;100.00
6599;BME280;3335;43.198;27.918;2022-11-15T11:14:59;150286.97;;;12.13;100.00
6599;BME280;3335;43.198;27.918;2022-11-15T11:17:41;150270.75;;;12.06;100.00
6599;BME280;3335;43.198;27.918;2022-11-15T11:20:18;150305.75;;;12.20;100.00
6599;BME280;3335;43.198;27.918;2022-11-15T11:22:58;150330.78;;;12.31;100.00
6599;BME280;3335;43.198;27.918;2022-11-15T11:25:34;150328.25;;;12.30;100.00
6599;BME280;3335;43.198;27.918;2022-11-15T11:28:21;150353.28;;;12.40;100.00
6599;BME280;3335;43.198;27.918;2022-11-15T11:31:03;150360.78;;;12.43;100.00
6599;BME280;3335;43.198;27.918;2022-11-15T11:33:39;150369.53;;;12.46;100.00
6599;BME280;3335;43.198;27.918;2022-11-15T11:36:19;150350.78;;;12.39;100.00
6599;BME280;3335;43.198;27.918;2022-11-15T11:38:57;150225.69;;;11.88;100.00
6599;BME280;3335;43.198;27.918;2022-11-15T11:41:42;150344.50;;;12.36;100.00
6599;BME280;3335;43.198;27.918;2022-11-15T11:44:18;150358.25;;;12.42;100.00
6599;BME280;3335;43.198;27.918;2022-11-15T11:46:54;150368.25;;;12.46;100.00
6599;BME280;3335;43.198;27.918;2022-11-15T11:49:30;150350.78;;;12.39;100.00
6599;BME280;3335;43.198;27.918;2022-11-15T11:52:03;150200.72;;;11.78;100.00
6599;BME280;3335;43.198;27.918;2022-11-15T11:54:40;150368.25;;;12.46;100.00
6599;BME280;3335;43.198;27.918;2022-11-15T11:57:15;150380.78;;;12.51;100.00
6599;BME280;3335;43.198;27.918;2022-11-15T11:59:48;150393.28;;;12.56;100.00
6599;BME280;3335;43.198;27.918;2022-11-15T12:02:20;150418.31;;;12.66;100.00
6599;BME280;3335;43.198;27.918;2022-11-15T12:04:58;150430.84;;;12.71;100.00
6599;BME280;3335;43.198;27.918;2022-11-15T12:07:31;150409.56;;;12.62;100.00
6599;BME280;3335;43.198;27.918;2022-11-15T12:10:03;150453.34;;;12.80;100.00
6599;BME280;3335;43.198;27.918;2022-11-15T12:12:35;150460.84;;;12.83;100.00
6599;BME280;3335;43.198;27.918;2022-11-15T12:15:12;150470.91;;;12.87;100.00
6599;BME280;3335;43.198;27.918;2022-11-15T12:17:41;150508.41;;;13.02;100.00
6599;BME280;3335;43.198;27.918;2022-11-15T12:20:16;150528.44;;;13.10;100.00
6599;BME280;3335;43.198;27.918;2022-11-15T12:22:48;150571.03;;;13.28;100.00
6599;BME280;3335;43.198;27.918;2022-11-15T12:25:19;150547.25;;;13.18;100.00
6599;BME280;3335;43.198;27.918;2022-11-15T12:27:53;150530.97;;;13.11;100.00
6599;BME280;3335;43.198;27.918;2022-11-15T12:30:22;150547.25;;;13.18;100.00
6599;BME280;3335;43.198;27.918;2022-11-15T12:32:53;150533.47;;;13.12;100.00
6599;BME280;3335;43.198;27.918;2022-11-15T12:35:28;150503.41;;;13.00;100.00
6599;BME280;3335;43.198;27.918;2022-11-15T12:37:57;150525.94;;;13.09;100.00
6599;BME280;3335;43.198;27.918;2022-11-15T12:40:25;150490.91;;;12.95;100.00
6599;BME280;3335;43.198;27.918;2022-11-15T12:45:54;150498.38;;;12.98;100.00
6599;BME280;3335;43.198;27.918;2022-11-15T12:48:55;150488.38;;;12.94;100.00
6599;BME280;3335;43.198;27.918;2022-11-15T12:55:00;150528.44;;;13.10;100.00
6599;BME280;3335;43.198;27.918;2022-11-15T12:57:38;150518.44;;;13.06;100.00
6599;BME280;3335;43.198;27.918;2022-11-15T13:03:31;150576.06;;;13.30;100.00
6599;BME280;3335;43.198;27.918;2022-11-15T13:06:02;150574.81;;;13.29;100.00
6599;BME280;3335;43.198;27.918;2022-11-15T13:08:48;150603.56;;;13.41;100.00
6599;BME280;3335;43.198;27.918;2022-11-15T13:11:45;150601.09;;;13.40;100.00
6599;BME280;3335;43.198;27.918;2022-11-15T13:17:33;150543.50;;;13.17;100.00
6599;BME280;3335;43.198;27.918;2022-11-15T13:20:20;150566.06;;;13.26;100.00
6599;BME280;3335;43.198;27.918;2022-11-15T13:22:48;150583.56;;;13.33;100.00
6599;BME280;3335;43.198;27.918;2022-11-15T13:28:21;150596.09;;;13.38;100.00
6599;BME280;3335;43.198;27.918;2022-11-15T13:30:51;150581.03;;;13.32;100.00
6599;BME280;3335;43.198;27.918;2022-11-15T13:33:20;150420.81;;;12.67;100.00